createdAt,value
2022-12-06T00:02:57.793Z,94944
2022-12-06T00:06:23.000Z,94950
2022-12-06T00:09:48.256Z,94952
2022-12-06T00:13:13.532Z,94953
2022-12-06T00:16:38.841Z,94954
2022-12-06T00:20:03.998Z,94958
2022-12-06T00:23:31.682Z,94959
2022-12-06T00:26:54.516Z,94962
2022-12-06T00:30:19.760Z,94959
2022-12-06T00:33:44.985Z,94954
2022-12-06T00:37:10.249Z,94952
2022-12-06T00:40:35.481Z,94950
2022-12-06T00:44:00.744Z,94947
2022-12-06T00:47:26.014Z,94946
2022-12-06T00:50:51.229Z,94951
2022-12-06T00:54:16.457Z,94941
2022-12-06T00:57:41.713Z,94945
2022-12-06T01:01:07.009Z,94941
2022-12-06T01:04:32.261Z,94944
2022-12-06T01:07:57.591Z,94937
2022-12-06T01:11:22.771Z,94935
2022-12-06T01:14:48.049Z,94934
2022-12-06T01:18:13.312Z,94933
2022-12-06T01:21:38.572Z,94931
2022-12-06T01:25:03.822Z,94924
2022-12-06T01:28:29.059Z,94918
2022-12-06T01:31:54.344Z,94911
2022-12-06T01:35:19.582Z,94912
2022-12-06T01:38:44.835Z,94914
2022-12-06T01:42:10.067Z,94915
2022-12-06T01:45:35.299Z,94917
2022-12-06T01:49:00.583Z,94920
2022-12-06T01:52:25.846Z,94922
2022-12-06T01:55:51.128Z,94919
2022-12-06T01:59:16.345Z,94916
2022-12-06T02:02:41.653Z,94915
2022-12-06T02:06:06.885Z,94915
2022-12-06T02:09:32.126Z,94912
2022-12-06T02:12:57.423Z,94905
2022-12-06T02:16:22.664Z,94901
2022-12-06T02:19:47.887Z,94897
2022-12-06T02:23:13.145Z,94890
2022-12-06T02:26:38.426Z,94887
2022-12-06T02:30:03.695Z,94883
2022-12-06T02:33:28.921Z,94872
2022-12-06T02:36:54.190Z,94873
2022-12-06T02:40:19.462Z,94868
2022-12-06T02:43:44.679Z,94860
2022-12-06T02:47:09.969Z,94862
2022-12-06T02:50:35.183Z,94860
2022-12-06T02:54:00.485Z,94853
2022-12-06T02:57:25.748Z,94847
2022-12-06T03:00:50.981Z,94850
2022-12-06T03:04:16.265Z,94849
2022-12-06T03:07:41.567Z,94851
2022-12-06T03:11:06.781Z,94851
2022-12-06T03:14:32.032Z,94846
2022-12-06T03:17:57.267Z,94841
2022-12-06T03:21:22.523Z,94846
2022-12-06T03:24:47.748Z,94840
2022-12-06T03:28:13.006Z,94846
2022-12-06T03:31:38.370Z,94849
2022-12-06T03:35:03.492Z,94842
2022-12-06T03:38:28.763Z,94828
2022-12-06T03:41:53.975Z,94820
2022-12-06T03:45:19.272Z,94812
2022-12-06T03:48:44.468Z,94822
2022-12-06T03:52:09.725Z,94820
2022-12-06T03:55:35.026Z,94817
2022-12-06T03:59:00.241Z,94818
2022-12-06T04:02:25.490Z,94817
2022-12-06T04:05:50.741Z,94811
2022-12-06T04:09:15.984Z,94805
2022-12-06T04:12:41.263Z,94803
2022-12-06T04:16:06.497Z,94809
2022-12-06T04:19:31.699Z,94803
2022-12-06T04:22:56.975Z,94799
2022-12-06T04:26:22.214Z,94794
2022-12-06T04:29:47.487Z,94784
2022-12-06T04:33:12.705Z,94786
2022-12-06T04:36:37.958Z,94790
2022-12-06T04:40:03.459Z,94784
2022-12-06T04:43:28.445Z,94783
2022-12-06T04:46:53.777Z,94787
2022-12-06T04:50:19.140Z,94785
2022-12-06T04:53:44.441Z,94783
2022-12-06T04:57:09.736Z,94780
2022-12-06T05:00:35.077Z,94780
2022-12-06T05:04:00.422Z,94789
2022-12-06T05:07:25.602Z,94781
2022-12-06T05:10:50.860Z,94775
2022-12-06T05:14:16.640Z,94783
2022-12-06T05:17:41.880Z,94787
2022-12-06T05:21:07.142Z,94789
2022-12-06T05:24:32.394Z,94783
2022-12-06T05:27:57.663Z,94779
2022-12-06T05:31:22.948Z,94778
2022-12-06T05:34:48.190Z,94776
2022-12-06T05:38:13.463Z,94774
2022-12-06T05:41:38.728Z,94772
2022-12-06T05:45:03.985Z,94769
2022-12-06T05:48:29.281Z,94773
2022-12-06T05:51:54.650Z,94772
2022-12-06T05:55:19.928Z,94774
2022-12-06T05:58:45.159Z,94770
2022-12-06T06:02:10.527Z,94773
2022-12-06T06:05:35.667Z,94776
2022-12-06T06:09:00.925Z,94772
2022-12-06T06:12:26.211Z,94768
2022-12-06T06:15:51.437Z,94772
2022-12-06T06:19:16.717Z,94770
2022-12-06T06:22:41.958Z,94771
2022-12-06T06:26:07.211Z,94773
2022-12-06T06:29:32.947Z,94772
2022-12-06T06:32:58.300Z,94770
2022-12-06T06:36:23.790Z,94768
2022-12-06T06:39:49.282Z,94765
2022-12-06T06:43:14.780Z,94768
2022-12-06T06:46:40.183Z,94774
2022-12-06T06:50:05.796Z,94779
2022-12-06T06:53:31.579Z,94777
2022-12-06T06:56:57.063Z,94781
2022-12-06T07:00:22.543Z,94782
2022-12-06T07:03:48.084Z,94774
2022-12-06T07:07:19.363Z,94776
2022-12-06T07:10:39.127Z,94775
2022-12-06T07:14:04.664Z,94781
2022-12-06T07:17:30.866Z,94775
2022-12-06T07:20:56.452Z,94769
2022-12-06T07:24:22.157Z,94770
2022-12-06T07:27:52.442Z,94769
2022-12-06T07:31:18.032Z,94772
2022-12-06T07:34:43.632Z,94773
2022-12-06T07:38:09.178Z,94768
2022-12-06T07:41:34.645Z,94772
2022-12-06T07:45:02.159Z,94769
2022-12-06T07:48:25.510Z,94771
2022-12-06T07:51:51.056Z,94774
2022-12-06T07:55:19.397Z,94772
2022-12-06T07:58:44.939Z,94769
2022-12-06T08:02:10.604Z,94764
2022-12-06T08:05:36.117Z,94762
2022-12-06T08:09:01.691Z,94761
2022-12-06T08:12:27.917Z,94762
2022-12-06T08:15:54.170Z,94759
2022-12-06T08:19:19.670Z,94760
2022-12-06T08:22:45.089Z,94756
2022-12-06T08:26:10.622Z,94760
2022-12-06T08:29:36.220Z,94758
2022-12-06T08:33:01.706Z,94763
2022-12-06T08:36:27.330Z,94766
2022-12-06T08:39:52.933Z,94760
2022-12-06T08:43:18.506Z,94765
2022-12-06T08:46:44.066Z,94770
2022-12-06T08:50:09.604Z,94769
2022-12-06T08:53:35.213Z,94773
2022-12-06T08:57:00.879Z,94774
2022-12-06T09:00:26.487Z,94769
2022-12-06T09:03:52.867Z,94771
2022-12-06T09:07:18.282Z,94765
2022-12-06T09:10:43.815Z,94763
2022-12-06T09:14:09.867Z,94774
2022-12-06T09:17:35.331Z,94772
2022-12-06T09:21:00.867Z,94779
2022-12-06T09:24:26.471Z,94775
2022-12-06T09:27:52.080Z,94774
2022-12-06T09:31:17.772Z,94777
2022-12-06T09:34:54.369Z,94771
2022-12-06T09:38:19.781Z,94775
2022-12-06T09:41:45.560Z,94771
2022-12-06T09:45:11.297Z,94777
2022-12-06T09:48:36.961Z,94778
2022-12-06T09:52:02.558Z,94780
2022-12-06T09:55:28.231Z,94780
2022-12-06T09:58:53.851Z,94779
2022-12-06T10:02:19.624Z,94781
2022-12-06T10:05:48.064Z,94775
2022-12-06T10:09:11.405Z,94775
2022-12-06T10:12:36.887Z,94776
2022-12-06T10:16:02.344Z,94765
2022-12-06T10:19:27.736Z,94769
2022-12-06T10:22:53.199Z,94764
2022-12-06T10:26:18.948Z,94765
2022-12-06T10:29:44.522Z,94769
2022-12-06T10:33:10.033Z,94766
2022-12-06T10:36:35.583Z,94759
2022-12-06T10:40:01.155Z,94757
2022-12-06T10:43:26.401Z,94758
2022-12-06T10:46:52.065Z,94759
2022-12-06T10:50:17.362Z,94756
2022-12-06T10:53:42.802Z,94761
2022-12-06T10:57:08.244Z,94756
2022-12-06T11:00:33.835Z,94763
2022-12-06T11:03:59.319Z,94765
2022-12-06T11:07:24.792Z,94768
2022-12-06T11:10:50.377Z,94769
2022-12-06T11:14:15.865Z,94769
2022-12-06T11:17:41.322Z,94761
2022-12-06T11:21:06.768Z,94754
2022-12-06T11:24:32.410Z,94755
2022-12-06T11:27:57.980Z,94752
2022-12-06T11:31:23.481Z,94751
2022-12-06T11:34:48.927Z,94746
2022-12-06T11:38:14.592Z,94750
2022-12-06T11:41:39.925Z,94749
2022-12-06T11:45:06.072Z,94744
2022-12-06T11:48:31.391Z,94747
2022-12-06T11:51:57.071Z,94748
2022-12-06T11:55:22.791Z,94750
2022-12-06T11:58:49.140Z,94738
2022-12-06T12:02:19.383Z,94738
2022-12-06T12:06:03.579Z,94733
2022-12-06T12:09:37.138Z,94733
2022-12-06T12:13:02.511Z,94729
2022-12-06T12:16:27.847Z,94728
2022-12-06T12:19:53.248Z,94725
2022-12-06T12:23:18.545Z,94725
2022-12-06T12:26:43.874Z,94727
2022-12-06T12:30:09.203Z,94724
2022-12-06T12:33:34.644Z,94727
2022-12-06T12:37:01.705Z,94722
2022-12-06T12:40:26.995Z,94722
2022-12-06T12:44:07.644Z,94719
2022-12-06T12:47:17.681Z,94718
2022-12-06T12:50:42.952Z,94714
2022-12-06T12:54:08.243Z,94719
2022-12-06T12:57:33.609Z,94720
2022-12-06T13:00:58.956Z,94717
2022-12-06T13:04:24.248Z,94719
2022-12-06T13:07:49.589Z,94715
2022-12-06T13:11:14.852Z,94715
2022-12-06T13:14:40.202Z,94721
2022-12-06T13:18:05.521Z,94720
2022-12-06T13:21:30.882Z,94719
2022-12-06T13:24:56.159Z,94720
2022-12-06T13:28:21.493Z,94718
2022-12-06T13:31:46.753Z,94714
2022-12-06T13:35:12.060Z,94709
2022-12-06T13:38:37.367Z,94705
2022-12-06T13:42:02.706Z,94705
2022-12-06T13:45:28.043Z,94703
2022-12-06T13:48:53.338Z,94705
2022-12-06T13:52:18.618Z,94707
2022-12-06T13:55:43.956Z,94709
2022-12-06T13:59:09.232Z,94704
2022-12-06T14:02:34.816Z,94708
2022-12-06T14:09:17.799Z,94708
2022-12-06T14:12:43.254Z,94716
2022-12-06T14:16:08.554Z,94717
2022-12-06T14:19:33.864Z,94713
2022-12-06T14:22:59.187Z,94719
2022-12-06T14:26:24.545Z,94722
2022-12-06T14:29:49.886Z,94713
2022-12-06T15:07:21.119Z,94728
2022-12-06T15:10:46.551Z,94732
2022-12-06T15:14:13.822Z,94727
2022-12-06T15:17:39.523Z,94726
2022-12-06T15:21:04.813Z,94730
2022-12-06T15:24:30.145Z,94728
2022-12-06T15:27:55.398Z,94721
2022-12-06T15:31:20.814Z,94722
2022-12-06T15:34:46.087Z,94724
2022-12-06T15:38:11.407Z,94723
2022-12-06T15:41:36.707Z,94730
2022-12-06T15:45:03.137Z,94737
2022-12-06T15:48:28.113Z,94737
2022-12-06T15:51:53.509Z,94736
2022-12-06T15:55:18.871Z,94739
2022-12-06T15:58:44.189Z,94737
2022-12-06T16:02:09.499Z,94738
2022-12-06T16:05:34.757Z,94737
2022-12-06T16:09:00.071Z,94744
2022-12-06T16:12:25.361Z,94739
2022-12-06T16:15:50.772Z,94737
2022-12-06T16:19:15.945Z,94739
2022-12-06T16:22:41.253Z,94739
2022-12-06T16:26:06.545Z,94743
2022-12-06T16:29:31.840Z,94735
2022-12-06T16:32:57.211Z,94738
2022-12-06T16:36:22.462Z,94742
2022-12-06T16:39:47.862Z,94737
2022-12-06T16:43:13.122Z,94739
2022-12-06T16:46:38.408Z,94741
2022-12-06T16:50:03.678Z,94739
2022-12-06T16:53:28.976Z,94745
2022-12-06T16:56:54.368Z,94744
2022-12-06T17:00:19.636Z,94753
2022-12-06T17:03:44.945Z,94751
2022-12-06T17:07:10.317Z,94753
2022-12-06T17:10:35.531Z,94754
2022-12-06T17:14:00.854Z,94752
2022-12-06T17:17:26.162Z,94746
2022-12-06T17:20:51.399Z,94748
2022-12-06T17:24:16.744Z,94748
2022-12-06T17:27:42.031Z,94746
2022-12-06T17:31:07.408Z,94744
2022-12-06T17:34:32.705Z,94743
2022-12-06T17:37:57.958Z,94744
2022-12-06T17:41:23.360Z,94745
2022-12-06T17:44:48.652Z,94746
2022-12-06T17:48:13.958Z,94742
2022-12-06T17:51:39.280Z,94737
2022-12-06T17:55:04.933Z,94743
2022-12-06T17:58:29.898Z,94743
2022-12-06T18:05:20.779Z,94740
2022-12-06T18:08:46.122Z,94737
2022-12-06T18:12:11.623Z,94744
2022-12-06T18:15:37.166Z,94738
2022-12-06T18:19:05.911Z,94746
2022-12-06T18:22:27.800Z,94743
2022-12-06T18:25:53.075Z,94740
2022-12-06T18:29:18.338Z,94742
2022-12-06T18:32:43.741Z,94747
2022-12-06T18:36:09.027Z,94741
2022-12-06T18:39:34.389Z,94745
2022-12-06T18:43:00.458Z,94743
2022-12-06T18:46:25.809Z,94740
2022-12-06T18:49:51.129Z,94741
2022-12-06T18:53:16.408Z,94735
2022-12-06T18:56:41.681Z,94742
2022-12-06T19:00:06.937Z,94742
2022-12-06T19:03:32.227Z,94740
2022-12-06T19:06:57.547Z,94742
2022-12-06T19:10:22.775Z,94742
2022-12-06T19:13:48.089Z,94735
2022-12-06T19:17:13.428Z,94737
2022-12-06T19:20:38.650Z,94740
2022-12-06T19:24:03.960Z,94742
2022-12-06T19:27:29.208Z,94744
2022-12-06T19:31:00.621Z,94741
2022-12-06T19:34:25.888Z,94740
2022-12-06T19:37:51.632Z,94746
2022-12-06T19:41:17.061Z,94751
2022-12-06T19:44:42.428Z,94754
2022-12-06T19:48:08.141Z,94752
2022-12-06T19:51:33.480Z,94755
2022-12-06T19:54:58.733Z,94754
2022-12-06T19:58:24.067Z,94751
2022-12-06T20:01:49.464Z,94754
2022-12-06T20:05:14.771Z,94762
2022-12-06T20:08:40.388Z,94767
2022-12-06T20:12:05.905Z,94758
2022-12-06T20:15:31.315Z,94762
2022-12-06T20:18:56.593Z,94759
2022-12-06T20:22:22.056Z,94759
2022-12-06T20:25:47.355Z,94752
2022-12-06T20:29:12.647Z,94749
2022-12-06T20:32:38.033Z,94756
2022-12-06T20:36:03.239Z,94749
2022-12-06T20:39:28.634Z,94749
2022-12-06T20:42:54.072Z,94751
2022-12-06T20:46:19.422Z,94746
2022-12-06T20:49:44.783Z,94744
2022-12-06T20:53:10.058Z,94745
2022-12-06T20:56:35.969Z,94744
2022-12-06T21:00:06.982Z,94747
2022-12-06T21:03:26.594Z,94748
2022-12-06T21:06:52.058Z,94746
2022-12-06T21:10:17.319Z,94748
2022-12-06T21:13:42.662Z,94745
2022-12-06T21:17:08.200Z,94739
2022-12-06T21:20:33.480Z,94740
2022-12-06T21:23:58.834Z,94740
2022-12-06T21:27:24.194Z,94747
2022-12-06T21:30:49.757Z,94739
2022-12-06T21:34:15.035Z,94746
2022-12-06T21:37:40.358Z,94748
2022-12-06T21:41:05.706Z,94736
2022-12-06T21:44:30.977Z,94735
2022-12-06T21:47:57.095Z,94732
2022-12-06T21:51:22.451Z,94740
2022-12-06T21:54:47.811Z,94743
2022-12-06T21:58:13.159Z,94746
2022-12-06T22:01:38.415Z,94740
2022-12-06T22:05:03.657Z,94738
2022-12-06T22:08:28.948Z,94743
2022-12-06T22:11:54.212Z,94739
2022-12-06T22:15:19.566Z,94731
2022-12-06T22:18:46.292Z,94728
2022-12-06T22:22:10.212Z,94732
2022-12-06T22:25:35.554Z,94732
2022-12-06T22:29:00.847Z,94733
2022-12-06T22:32:26.124Z,94730
2022-12-06T22:35:51.411Z,94726
2022-12-06T22:39:16.691Z,94725
2022-12-06T22:42:41.930Z,94725
2022-12-06T22:46:07.188Z,94720
2022-12-06T22:49:32.467Z,94724
2022-12-06T22:52:57.715Z,94724
2022-12-06T22:56:22.958Z,94727
2022-12-06T22:59:48.226Z,94715
2022-12-06T23:03:13.491Z,94714
2022-12-06T23:06:38.754Z,94717
2022-12-06T23:10:04.204Z,94723
2022-12-06T23:13:29.220Z,94727
2022-12-06T23:16:54.461Z,94725
2022-12-06T23:20:19.715Z,94724
2022-12-06T23:23:45.081Z,94725
2022-12-06T23:27:10.313Z,94713
2022-12-06T23:30:35.568Z,94715
2022-12-06T23:34:00.807Z,94720
2022-12-06T23:37:26.079Z,94714
2022-12-06T23:40:51.356Z,94716
2022-12-06T23:44:16.595Z,94713
2022-12-06T23:47:41.855Z,94711
2022-12-06T23:51:07.136Z,94705
2022-12-06T23:54:32.407Z,94701
2022-12-06T23:57:57.690Z,94710
